Time;durP1;ratioP1;P1;durP2;ratioP2;P2;SDS_P1;SDS_P2;PMS_P1;PMS_P2;Temp;Humidity;BMP_temperature;BMP_pressure;BME280_temperature;BME280_humidity;BME280_pressure;Samples;Min_cycle;Max_cycle;Signal;HPM_P1;HPM_P2
2022/09/02 00:02:16;;;;;;;0.50;0.50;;;13.00;99.90;;;;;;5031801;28;20448;-67
2022/09/02 00:05:05;;;;;;;0.40;0.40;;;13.00;99.90;;;;;;5031508;28;20506;-67
2022/09/02 00:07:55;;;;;;;0.50;0.50;;;13.00;99.90;;;;;;5032643;28;20855;-67
2022/09/02 00:10:45;;;;;;;0.50;0.50;;;12.90;99.90;;;;;;5031079;28;20417;-68
2022/09/02 00:13:34;;;;;;;0.40;0.40;;;12.90;99.90;;;;;;5031490;28;20851;-66
2022/09/02 00:16:23;;;;;;;0.40;0.40;;;12.90;99.90;;;;;;5032134;28;20444;-67
2022/09/02 00:19:12;;;;;;;0.50;0.50;;;12.90;99.90;;;;;;5031793;28;20421;-66
2022/09/02 00:22:01;;;;;;;0.50;0.50;;;12.90;99.90;;;;;;5031517;28;20433;-67
2022/09/02 00:24:50;;;;;;;0.40;0.40;;;12.90;99.90;;;;;;5030923;28;20452;-66
2022/09/02 00:27:39;;;;;;;0.50;0.50;;;12.90;99.90;;;;;;5031302;28;20782;-66
2022/09/02 00:30:27;;;;;;;0.40;0.40;;;12.90;99.90;;;;;;5030948;28;20429;-65
2022/09/02 00:33:15;;;;;;;0.50;0.50;;;12.80;99.90;;;;;;5032285;28;20425;-67
2022/09/02 00:36:05;;;;;;;0.50;0.50;;;12.80;99.90;;;;;;5031759;28;20441;-68
2022/09/02 00:38:53;;;;;;;0.40;0.40;;;12.80;99.90;;;;;;5030853;28;20519;-67
2022/09/02 00:41:43;;;;;;;0.50;0.50;;;12.80;99.90;;;;;;5030967;28;20786;-68
2022/09/02 00:44:32;;;;;;;0.50;0.50;;;12.80;99.90;;;;;;5031216;28;20938;-66
2022/09/02 00:47:21;;;;;;;0.50;0.50;;;12.80;99.90;;;;;;5030640;28;21055;-68
2022/09/02 00:50:13;;;;;;;0.40;0.40;;;12.80;99.90;;;;;;5030626;28;20438;-68
2022/09/02 00:53:04;;;;;;;0.40;0.40;;;12.80;99.90;;;;;;5012319;28;20426;-67
2022/09/02 00:55:52;;;;;;;0.50;0.50;;;12.80;99.90;;;;;;5011236;28;20450;-66
2022/09/02 00:58:43;;;;;;;0.40;0.40;;;12.80;99.90;;;;;;5011276;28;20429;-67
2022/09/02 01:01:31;;;;;;;0.50;0.50;;;12.80;99.90;;;;;;5016637;28;20476;-67
2022/09/02 01:04:19;;;;;;;0.47;0.47;;;12.70;99.90;;;;;;5016195;28;20437;-68
2022/09/02 01:07:08;;;;;;;0.50;0.50;;;12.70;99.90;;;;;;5015256;28;20481;-70
2022/09/02 01:09:58;;;;;;;0.40;0.40;;;12.70;99.90;;;;;;5015415;28;20452;-66
2022/09/02 01:12:46;;;;;;;0.40;0.40;;;12.70;99.90;;;;;;5016162;28;20515;-67
2022/09/02 01:15:38;;;;;;;0.50;0.50;;;12.70;99.90;;;;;;5016151;28;20962;-69
2022/09/02 01:18:29;;;;;;;0.50;0.50;;;12.70;99.90;;;;;;5014854;28;20484;-68
2022/09/02 01:21:18;;;;;;;0.47;0.47;;;12.60;99.90;;;;;;5014560;28;20422;-68
2022/09/02 01:24:08;;;;;;;0.50;0.50;;;12.70;99.90;;;;;;5015915;28;20409;-67
2022/09/02 01:26:58;;;;;;;0.50;0.50;;;12.60;99.90;;;;;;5015453;28;20829;-67
2022/09/02 01:29:51;;;;;;;0.50;0.50;;;12.60;99.90;;;;;;5024883;28;20440;-68
2022/09/02 01:32:39;;;;;;;0.40;0.40;;;12.60;99.90;;;;;;5036099;28;20448;-68
2022/09/02 01:35:27;;;;;;;0.40;0.40;;;12.60;99.90;;;;;;5035475;28;20479;-67
2022/09/02 01:38:15;;;;;;;0.50;0.50;;;12.50;99.90;;;;;;5035723;28;20420;-67
2022/09/02 01:41:05;;;;;;;0.40;0.40;;;12.50;99.90;;;;;;5035248;28;20494;-68
2022/09/02 01:43:54;;;;;;;0.40;0.40;;;12.50;99.90;;;;;;5035471;28;20432;-67
2022/09/02 01:46:43;;;;;;;0.47;0.47;;;12.50;99.90;;;;;;5035218;28;20823;-65
2022/09/02 01:49:31;;;;;;;0.50;0.50;;;12.50;99.90;;;;;;5035041;28;20421;-68
2022/09/02 01:52:25;;;;;;;0.40;0.40;;;12.40;99.90;;;;;;5017151;28;20433;-67
2022/09/02 01:55:13;;;;;;;0.50;0.50;;;12.50;99.90;;;;;;5014744;28;20488;-66
2022/09/02 01:58:03;;;;;;;0.43;0.43;;;12.40;99.90;;;;;;5014753;28;20423;-67
2022/09/02 02:00:51;;;;;;;0.50;0.50;;;12.50;99.90;;;;;;5014042;28;20472;-67
2022/09/02 02:03:40;;;;;;;0.50;0.50;;;12.40;99.90;;;;;;5014637;28;20507;-67
2022/09/02 02:06:28;;;;;;;0.40;0.40;;;12.40;99.90;;;;;;5014888;28;20531;-67
2022/09/02 02:09:16;;;;;;;0.50;0.50;;;12.40;99.90;;;;;;5014205;28;20777;-69
2022/09/02 02:12:05;;;;;;;0.50;0.50;;;12.40;99.90;;;;;;5014732;28;20426;-67
2022/09/02 02:14:55;;;;;;;0.40;0.40;;;12.30;99.90;;;;;;5014871;28;20422;-67
2022/09/02 02:17:43;;;;;;;0.50;0.50;;;12.30;99.90;;;;;;5014402;28;20418;-69
2022/09/02 02:20:31;;;;;;;0.50;0.50;;;12.30;99.90;;;;;;5013433;28;20912;-68
2022/09/02 02:23:19;;;;;;;0.50;0.50;;;12.30;99.90;;;;;;5014218;28;20965;-67
2022/09/02 02:26:08;;;;;;;0.50;0.50;;;12.30;99.90;;;;;;5015338;28;20469;-68
2022/09/02 02:28:56;;;;;;;0.40;0.40;;;12.30;99.90;;;;;;5014629;28;20441;-66
2022/09/02 02:31:45;;;;;;;0.40;0.40;;;12.40;99.90;;;;;;5013959;28;20484;-67
2022/09/02 02:34:34;;;;;;;0.50;0.50;;;12.50;99.90;;;;;;5014428;28;20426;-68
2022/09/02 02:37:22;;;;;;;0.40;0.40;;;12.50;99.90;;;;;;5014045;28;20418;-68
2022/09/02 02:40:13;;;;;;;0.40;0.40;;;12.60;99.90;;;;;;5013343;28;20425;-68
2022/09/02 02:43:01;;;;;;;0.50;0.50;;;12.70;99.90;;;;;;5013581;28;20795;-67
2022/09/02 02:45:49;;;;;;;0.40;0.40;;;12.80;99.90;;;;;;5013507;28;20453;-67
2022/09/02 02:48:38;;;;;;;0.50;0.50;;;12.90;99.90;;;;;;5013674;28;20997;-68
2022/09/02 02:51:27;;;;;;;0.40;0.40;;;13.00;99.90;;;;;;5024180;28;20457;-68
2022/09/02 02:54:15;;;;;;;0.50;0.50;;;13.00;99.90;;;;;;5033329;28;20981;-67
2022/09/02 02:57:04;;;;;;;0.40;0.40;;;13.10;99.90;;;;;;5033286;28;20446;-67
2022/09/02 02:59:52;;;;;;;0.50;0.50;;;13.10;99.90;;;;;;5032823;28;20429;-67
2022/09/02 03:02:40;;;;;;;0.40;0.40;;;13.20;99.90;;;;;;5033474;28;20433;-68
2022/09/02 03:05:30;;;;;;;0.50;0.50;;;13.20;99.90;;;;;;5033783;28;20441;-66
2022/09/02 03:08:21;;;;;;;0.40;0.40;;;13.20;99.90;;;;;;5033712;28;20554;-66
2022/09/02 03:11:09;;;;;;;0.40;0.40;;;13.30;99.90;;;;;;5032916;28;20429;-68
2022/09/02 03:13:58;;;;;;;0.40;0.40;;;13.30;99.90;;;;;;5033696;28;20634;-67
2022/09/02 03:16:46;;;;;;;0.40;0.40;;;13.20;99.90;;;;;;5033309;28;20988;-68
2022/09/02 03:19:34;;;;;;;0.40;0.40;;;13.20;99.90;;;;;;5033246;28;20827;-67
2022/09/02 03:22:23;;;;;;;0.40;0.40;;;13.10;99.90;;;;;;5032699;28;20961;-69
2022/09/02 03:25:13;;;;;;;0.47;0.47;;;13.00;99.90;;;;;;5033273;28;20417;-67
2022/09/02 03:28:02;;;;;;;0.50;0.50;;;13.00;99.90;;;;;;5031841;28;20761;-66
2022/09/02 03:30:50;;;;;;;0.50;0.50;;;12.90;99.90;;;;;;5032131;28;20475;-66
2022/09/02 03:33:38;;;;;;;0.40;0.40;;;12.80;99.90;;;;;;5032719;28;20428;-66
2022/09/02 03:36:30;;;;;;;0.50;0.50;;;12.80;99.90;;;;;;5033766;28;20441;-67
2022/09/02 03:39:20;;;;;;;0.50;0.50;;;12.70;99.90;;;;;;5032302;28;20467;-67
2022/09/02 03:42:08;;;;;;;0.40;0.40;;;12.60;99.90;;;;;;5033072;28;20425;-67
2022/09/02 03:45:08;;;;;;;0.50;0.50;;;12.50;99.90;;;;;;5013624;28;20426;-69
2022/09/02 03:47:57;;;;;;;0.50;0.50;;;12.50;99.90;;;;;;5013314;28;20462;-70
2022/09/02 03:50:46;;;;;;;0.40;0.40;;;12.50;99.90;;;;;;5017386;28;20964;-66
2022/09/02 03:53:35;;;;;;;0.50;0.50;;;12.40;99.90;;;;;;5032584;28;20851;-68
2022/09/02 03:56:24;;;;;;;0.50;0.50;;;12.30;99.90;;;;;;5032348;28;20441;-66
2022/09/02 03:59:12;;;;;;;0.50;0.50;;;12.20;99.90;;;;;;5031860;28;20471;-67
2022/09/02 04:02:01;;;;;;;0.50;0.50;;;12.20;99.90;;;;;;5032251;28;20429;-69
2022/09/02 04:04:50;;;;;;;0.50;0.50;;;12.10;99.90;;;;;;5032355;28;20421;-65
2022/09/02 04:07:39;;;;;;;0.40;0.40;;;12.10;99.90;;;;;;5032224;28;20476;-67
2022/09/02 04:10:29;;;;;;;0.50;0.50;;;12.00;99.90;;;;;;5031687;28;20491;-68
2022/09/02 04:13:19;;;;;;;0.40;0.40;;;12.00;99.90;;;;;;5032564;28;20428;-67
2022/09/02 04:16:08;;;;;;;0.40;0.40;;;11.90;99.90;;;;;;5032315;28;20444;-67
2022/09/02 04:19:00;;;;;;;0.50;0.50;;;11.90;99.90;;;;;;5031137;28;20432;-66
2022/09/02 04:21:48;;;;;;;0.50;0.50;;;11.90;99.90;;;;;;5032732;28;20425;-67
2022/09/02 04:24:37;;;;;;;0.50;0.50;;;11.80;99.90;;;;;;5032489;28;20425;-67
2022/09/02 04:27:25;;;;;;;0.50;0.50;;;11.80;99.90;;;;;;5031648;28;20519;-68
2022/09/02 04:30:16;;;;;;;0.40;0.40;;;11.90;99.90;;;;;;5031743;28;20651;-68
2022/09/02 04:33:04;;;;;;;0.50;0.50;;;11.90;99.90;;;;;;5031794;28;20895;-67
2022/09/02 04:35:52;;;;;;;0.50;0.50;;;11.90;99.90;;;;;;5031701;28;20449;-67
2022/09/02 04:38:40;;;;;;;0.50;0.50;;;12.00;99.90;;;;;;5031752;28;20433;-69
2022/09/02 04:41:30;;;;;;;0.40;0.40;;;12.00;99.90;;;;;;5032237;28;20439;-67
2022/09/02 04:44:19;;;;;;;0.40;0.40;;;12.10;99.90;;;;;;5031603;28;20421;-67
2022/09/02 04:47:08;;;;;;;0.43;0.43;;;12.10;99.90;;;;;;5031940;28;20440;-68
2022/09/02 04:49:57;;;;;;;0.40;0.40;;;12.00;99.90;;;;;;5031373;28;20551;-66
2022/09/02 04:52:45;;;;;;;0.40;0.40;;;12.10;99.90;;;;;;5012633;28;20501;-67
2022/09/02 04:55:34;;;;;;;0.60;0.60;;;12.00;99.90;;;;;;5012540;28;20457;-68
2022/09/02 04:58:22;;;;;;;0.40;0.40;;;12.10;99.90;;;;;;5011454;28;20450;-66
2022/09/02 05:01:12;;;;;;;0.40;0.40;;;12.10;99.90;;;;;;5011681;28;20505;-68
2022/09/02 05:04:06;;;;;;;0.40;0.40;;;12.10;99.90;;;;;;5011852;28;20497;-68
2022/09/02 05:06:54;;;;;;;0.50;0.50;;;12.10;99.90;;;;;;5011658;28;20848;-68
2022/09/02 05:09:42;;;;;;;0.40;0.40;;;12.10;99.90;;;;;;5011589;28;20465;-68
2022/09/02 05:12:31;;;;;;;0.50;0.50;;;12.20;99.90;;;;;;5012441;28;20426;-67
2022/09/02 05:15:19;;;;;;;0.50;0.50;;;12.20;99.90;;;;;;5010979;28;20450;-67
2022/09/02 05:18:08;;;;;;;0.40;0.40;;;12.30;99.90;;;;;;5012279;28;20424;-67
2022/09/02 05:20:58;;;;;;;0.50;0.50;;;12.30;99.90;;;;;;5011813;28;20809;-67
2022/09/02 05:23:46;;;;;;;0.40;0.40;;;12.30;99.90;;;;;;5011091;28;20441;-67
2022/09/02 05:26:34;;;;;;;0.50;0.50;;;12.40;99.90;;;;;;5024530;28;20984;-67
2022/09/02 05:29:23;;;;;;;0.50;0.50;;;12.40;99.90;;;;;;5030865;28;20460;-67
2022/09/02 05:32:11;;;;;;;0.50;0.50;;;12.40;99.90;;;;;;5031513;28;20428;-68
2022/09/02 05:35:00;;;;;;;0.40;0.40;;;12.40;99.90;;;;;;5031185;28;20480;-68
2022/09/02 05:37:49;;;;;;;0.40;0.40;;;12.40;99.90;;;;;;5027030;28;20483;-66
2022/09/02 05:40:37;;;;;;;0.40;0.40;;;12.50;99.90;;;;;;5031080;28;20432;-68
2022/09/02 05:43:26;;;;;;;0.40;0.40;;;12.50;99.90;;;;;;5031641;28;20835;-68
2022/09/02 05:46:17;;;;;;;0.40;0.40;;;12.60;99.90;;;;;;5032953;28;20591;-67
2022/09/02 05:49:06;;;;;;;0.40;0.40;;;12.60;99.90;;;;;;5034973;28;20602;-68
2022/09/02 05:51:56;;;;;;;0.40;0.40;;;12.70;99.90;;;;;;5020328;28;20529;-67
2022/09/02 05:54:47;;;;;;;0.40;0.40;;;12.80;99.90;;;;;;5015158;28;20495;-67
2022/09/02 05:57:36;;;;;;;0.40;0.40;;;13.00;99.90;;;;;;5015629;28;20426;-67
2022/09/02 06:00:24;;;;;;;0.40;0.40;;;13.10;99.90;;;;;;5015723;28;20422;-68
2022/09/02 06:03:12;;;;;;;0.50;0.50;;;13.30;99.90;;;;;;5015359;28;20533;-68
2022/09/02 06:06:00;;;;;;;0.50;0.50;;;13.50;99.90;;;;;;5015360;28;20457;-68
2022/09/02 06:08:53;;;;;;;0.40;0.40;;;13.60;99.90;;;;;;5034708;28;20457;-67
2022/09/02 06:11:45;;;;;;;0.50;0.50;;;13.70;99.90;;;;;;5034565;28;20437;-68
2022/09/02 06:14:34;;;;;;;0.40;0.40;;;13.80;99.90;;;;;;5034534;28;20508;-67
2022/09/02 06:17:22;;;;;;;0.40;0.40;;;13.70;99.90;;;;;;5034769;28;20455;-66
2022/09/02 06:20:11;;;;;;;0.43;0.43;;;13.70;99.90;;;;;;5033616;28;20425;-66
2022/09/02 06:22:59;;;;;;;0.47;0.47;;;13.60;99.90;;;;;;5034219;28;20433;-67
2022/09/02 06:25:49;;;;;;;0.40;0.40;;;13.70;99.90;;;;;;5034421;28;20461;-66
2022/09/02 06:28:38;;;;;;;0.50;0.50;;;13.80;99.90;;;;;;5034688;28;20518;-67
2022/09/02 06:31:27;;;;;;;0.40;0.40;;;13.90;99.90;;;;;;5034748;28;20427;-68
2022/09/02 06:34:25;;;;;;;0.40;0.40;;;14.10;99.90;;;;;;5035425;28;20433;-67
2022/09/02 06:37:13;;;;;;;0.40;0.40;;;14.30;99.90;;;;;;5034959;28;21060;-67
2022/09/02 06:40:02;;;;;;;0.63;0.63;;;14.40;99.90;;;;;;5033762;28;21007;-68
2022/09/02 06:42:50;;;;;;;0.40;0.40;;;14.60;99.90;;;;;;5034637;28;20618;-67
2022/09/02 06:45:40;;;;;;;0.40;0.40;;;14.70;99.90;;;;;;5033492;28;20514;-67
2022/09/02 06:48:28;;;;;;;0.40;0.40;;;14.70;99.90;;;;;;5033494;28;20421;-67
2022/09/02 06:51:18;;;;;;;0.40;0.40;;;14.80;99.90;;;;;;5026187;28;20484;-65
2022/09/02 06:54:12;;;;;;;0.40;0.40;;;14.80;99.90;;;;;;5015558;28;20429;-66
2022/09/02 06:57:01;;;;;;;0.40;0.40;;;14.80;99.90;;;;;;5013030;28;20496;-67
2022/09/02 06:59:49;;;;;;;0.40;0.40;;;14.90;99.90;;;;;;5015201;28;20429;-66
2022/09/02 07:02:38;;;;;;;0.50;0.50;;;14.90;99.90;;;;;;5014202;28;20819;-66
2022/09/02 07:05:25;;;;;;;0.40;0.40;;;14.90;99.90;;;;;;5014974;28;20446;-67
2022/09/02 07:08:14;;;;;;;0.40;0.40;;;14.90;99.90;;;;;;5014955;28;20521;-66
2022/09/02 07:11:02;;;;;;;0.50;0.50;;;15.00;99.90;;;;;;5014042;28;20528;-67
2022/09/02 07:13:51;;;;;;;0.43;0.43;;;15.10;99.90;;;;;;5014066;28;20426;-66
2022/09/02 07:16:45;;;;;;;0.40;0.40;;;15.10;99.90;;;;;;5014021;28;20450;-66
2022/09/02 07:19:34;;;;;;;0.40;0.40;;;15.20;99.90;;;;;;5012593;28;20508;-66
2022/09/02 07:22:22;;;;;;;0.40;0.40;;;15.20;99.90;;;;;;5013758;28;20214;-67
2022/09/02 07:25:11;;;;;;;0.40;0.40;;;15.40;99.90;;;;;;5021846;28;20457;-67
2022/09/02 07:27:59;;;;;;;0.40;0.40;;;15.40;99.90;;;;;;5033465;28;20965;-67
2022/09/02 07:30:47;;;;;;;0.50;0.50;;;15.50;99.90;;;;;;5033564;28;20521;-67
2022/09/02 07:33:36;;;;;;;0.40;0.40;;;15.60;99.90;;;;;;5033552;28;20202;-68
2022/09/02 07:36:26;;;;;;;0.50;0.50;;;15.60;99.90;;;;;;5033142;28;20694;-69
2022/09/02 07:39:15;;;;;;;0.40;0.40;;;15.70;99.90;;;;;;5033144;28;21034;-68
2022/09/02 07:42:04;;;;;;;0.40;0.40;;;15.70;99.90;;;;;;5033494;28;20460;-67
2022/09/02 07:44:55;;;;;;;0.40;0.40;;;15.90;99.90;;;;;;5032919;28;20206;-67
2022/09/02 07:47:43;;;;;;;0.40;0.40;;;16.00;99.90;;;;;;5032858;28;20575;-68
2022/09/02 07:50:32;;;;;;;2.97;1.60;;;16.00;99.90;;;;;;5029448;28;20221;-68
2022/09/02 07:53:21;;;;;;;0.40;0.40;;;16.10;99.90;;;;;;5013418;28;20194;-68
2022/09/02 07:56:10;;;;;;;0.40;0.40;;;16.20;99.90;;;;;;5012929;28;20215;-67
2022/09/02 07:58:59;;;;;;;0.40;0.40;;;16.30;99.90;;;;;;5011412;28;20237;-68
2022/09/02 08:01:47;;;;;;;0.40;0.40;;;16.40;99.90;;;;;;5020666;28;20205;-67
2022/09/02 08:04:35;;;;;;;0.40;0.40;;;16.40;99.90;;;;;;5032848;28;20208;-68
2022/09/02 08:07:23;;;;;;;0.40;0.40;;;16.50;99.90;;;;;;5032267;28;20622;-70
2022/09/02 08:10:15;;;;;;;0.40;0.40;;;16.50;99.90;;;;;;5030714;28;20222;-69
2022/09/02 08:13:05;;;;;;;0.40;0.40;;;16.60;99.90;;;;;;5032878;28;20659;-71
2022/09/02 08:15:53;;;;;;;0.40;0.40;;;16.70;99.90;;;;;;5031052;28;20900;-67
2022/09/02 08:18:42;;;;;;;1.23;1.13;;;16.80;99.90;;;;;;5031802;28;20813;-67
2022/09/02 08:21:30;;;;;;;0.40;0.40;;;16.80;99.90;;;;;;5031528;28;20683;-72
2022/09/02 08:24:18;;;;;;;0.50;0.50;;;16.90;99.90;;;;;;5031455;28;20213;-68
2022/09/02 08:27:08;;;;;;;0.40;0.40;;;17.00;99.90;;;;;;5031412;28;20239;-70
2022/09/02 08:29:56;;;;;;;0.40;0.40;;;17.10;99.90;;;;;;5030968;28;20829;-68
2022/09/02 08:32:44;;;;;;;0.50;0.50;;;17.20;99.90;;;;;;5031393;28;20205;-68
2022/09/02 08:35:32;;;;;;;0.40;0.40;;;17.30;99.90;;;;;;5031210;28;20229;-69
2022/09/02 08:38:21;;;;;;;0.40;0.40;;;17.40;99.90;;;;;;5031255;28;20278;-68
2022/09/02 08:41:18;;;;;;;0.40;0.40;;;17.50;99.90;;;;;;5031088;28;20694;-69
2022/09/02 08:44:11;;;;;;;0.40;0.40;;;17.50;99.90;;;;;;5031755;28;20202;-71
2022/09/02 08:47:04;;;;;;;0.40;0.40;;;17.60;99.90;;;;;;5031329;28;20464;-69
2022/09/02 08:49:57;;;;;;;0.40;0.40;;;17.60;99.90;;;;;;5029892;28;20217;-68
2022/09/02 08:52:55;;;;;;;0.40;0.40;;;17.80;99.90;;;;;;5011522;28;20744;-69
2022/09/02 08:55:46;;;;;;;0.40;0.40;;;17.80;99.90;;;;;;5011466;28;20219;-69
2022/09/02 08:58:40;;;;;;;0.40;0.40;;;17.90;99.90;;;;;;5011305;28;20202;-67
2022/09/02 09:01:40;;;;;;;0.40;0.40;;;18.00;99.90;;;;;;5011224;28;20202;-68
2022/09/02 09:04:53;;;;;;;0.40;0.40;;;18.10;99.90;;;;;;5010902;28;20248;-69
2022/09/02 09:08:03;;;;;;;0.40;0.40;;;18.10;99.90;;;;;;5011773;28;20199;-68
2022/09/02 09:11:00;;;;;;;0.40;0.40;;;18.20;99.90;;;;;;5011920;28;20309;-67
2022/09/02 09:14:02;;;;;;;0.40;0.40;;;18.30;99.90;;;;;;5011325;28;20564;-68
2022/09/02 09:16:57;;;;;;;0.40;0.40;;;18.30;99.90;;;;;;5010898;28;20268;-68
2022/09/02 09:19:50;;;;;;;0.50;0.50;;;18.30;99.90;;;;;;5011557;28;20329;-70
2022/09/02 09:22:40;;;;;;;0.40;0.40;;;18.40;99.90;;;;;;5014949;28;20206;-67
2022/09/02 09:25:29;;;;;;;0.40;0.40;;;18.50;99.90;;;;;;5014290;28;20285;-68
2022/09/02 09:28:17;;;;;;;0.40;0.40;;;18.50;99.90;;;;;;5015422;28;20329;-69
2022/09/02 09:31:08;;;;;;;0.40;0.40;;;18.60;99.90;;;;;;5015057;28;20222;-70
2022/09/02 09:34:00;;;;;;;0.40;0.40;;;18.70;99.90;;;;;;5014705;28;20206;-68
2022/09/02 09:36:52;;;;;;;0.40;0.40;;;19.00;99.90;;;;;;5014685;28;20714;-68
2022/09/02 09:39:40;;;;;;;0.50;0.50;;;19.10;99.90;;;;;;5014172;28;20202;-71
2022/09/02 09:42:34;;;;;;;0.40;0.40;;;19.10;99.90;;;;;;5014634;28;20218;-69
2022/09/02 09:45:28;;;;;;;0.40;0.40;;;19.10;99.90;;;;;;5014833;28;20226;-69
2022/09/02 09:48:21;;;;;;;0.88;0.60;;;19.10;99.90;;;;;;5014867;28;20211;-69
2022/09/02 09:51:14;;;;;;;0.40;0.40;;;19.20;99.90;;;;;;5022814;28;20307;-69
2022/09/02 09:54:15;;;;;;;0.40;0.40;;;19.20;99.90;;;;;;5034225;28;20264;-70
2022/09/02 09:57:20;;;;;;;0.40;0.40;;;19.40;99.90;;;;;;5033530;28;20225;-68
2022/09/02 10:00:21;;;;;;;0.40;0.40;;;19.50;99.90;;;;;;5034343;28;20194;-69
2022/09/02 10:03:21;;;;;;;0.40;0.40;;;19.70;99.90;;;;;;5034745;28;20202;-69
2022/09/02 10:06:22;;;;;;;0.43;0.43;;;19.80;99.90;;;;;;5033138;28;20721;-69
2022/09/02 10:09:32;;;;;;;0.45;0.45;;;19.90;99.90;;;;;;5033845;28;20198;-67
2022/09/02 10:12:31;;;;;;;0.50;0.50;;;20.00;99.90;;;;;;5034395;28;20209;-69
2022/09/02 10:15:29;;;;;;;0.40;0.40;;;20.20;99.90;;;;;;5033398;28;20225;-68
2022/09/02 10:18:25;;;;;;;0.40;0.40;;;20.30;99.90;;;;;;5033787;28;20202;-69
2022/09/02 10:21:28;;;;;;;0.40;0.40;;;20.30;99.90;;;;;;5033430;28;20278;-70
2022/09/02 10:24:30;;;;;;;0.50;0.50;;;20.20;99.90;;;;;;5033694;28;20629;-68
2022/09/02 10:27:26;;;;;;;0.40;0.40;;;20.00;99.90;;;;;;5033830;28;20261;-69
2022/09/02 10:30:18;;;;;;;0.40;0.40;;;19.90;99.90;;;;;;5033099;28;20333;-68
2022/09/02 10:33:26;;;;;;;0.40;0.40;;;19.90;99.90;;;;;;5033265;28;20734;-69
2022/09/02 10:36:27;;;;;;;0.40;0.40;;;20.00;99.90;;;;;;5033181;28;20328;-68
2022/09/02 10:39:30;;;;;;;0.50;0.50;;;20.10;99.90;;;;;;5033318;28;20198;-71
2022/09/02 10:42:29;;;;;;;0.57;0.57;;;20.30;99.90;;;;;;5033180;28;20202;-69
2022/09/02 10:45:29;;;;;;;0.40;0.40;;;20.90;99.90;;;;;;5033091;28;20202;-68
2022/09/02 10:48:31;;;;;;;0.40;0.40;;;20.90;99.90;;;;;;5033633;28;20202;-67
2022/09/02 10:51:29;;;;;;;0.40;0.40;;;21.10;99.90;;;;;;5023212;28;20218;-72
2022/09/02 10:54:34;;;;;;;0.40;0.40;;;21.20;99.90;;;;;;5013859;28;20210;-67
2022/09/02 10:57:28;;;;;;;0.40;0.40;;;21.50;99.90;;;;;;5012628;28;20223;-68
2022/09/02 11:00:19;;;;;;;0.40;0.40;;;21.90;99.90;;;;;;5013728;28;20241;-68
2022/09/02 11:03:13;;;;;;;0.40;0.40;;;22.30;99.90;;;;;;5014379;28;20586;-67
2022/09/02 11:06:07;;;;;;;0.40;0.40;;;22.60;99.90;;;;;;5013022;28;20215;-68
2022/09/02 11:08:59;;;;;;;0.40;0.40;;;22.60;99.90;;;;;;5014053;28;20199;-67
2022/09/02 11:11:55;;;;;;;0.40;0.40;;;22.60;99.80;;;;;;5013309;28;20222;-67
2022/09/02 11:15:02;;;;;;;0.40;0.40;;;22.70;98.50;;;;;;5014125;28;20617;-67
2022/09/02 11:17:59;;;;;;;0.40;0.40;;;22.90;98.40;;;;;;5013843;28;20682;-68
2022/09/02 11:20:56;;;;;;;0.40;0.40;;;22.90;97.70;;;;;;5013723;28;20706;-66
2022/09/02 11:23:49;;;;;;;0.40;0.40;;;22.90;97.90;;;;;;5014567;28;20215;-66
2022/09/02 11:26:41;;;;;;;0.40;0.40;;;22.90;96.90;;;;;;5013141;28;20241;-68
2022/09/02 11:29:39;;;;;;;0.50;0.50;;;22.80;96.50;;;;;;5013332;28;20214;-68
2022/09/02 11:32:32;;;;;;;0.40;0.40;;;22.70;95.30;;;;;;5012122;28;20262;-67
2022/09/02 11:35:25;;;;;;;0.40;0.40;;;22.60;95.30;;;;;;5013406;28;20691;-66
2022/09/02 11:38:31;;;;;;;0.40;0.40;;;22.70;95.40;;;;;;5012861;28;20203;-66
2022/09/02 11:41:43;;;;;;;0.40;0.40;;;22.70;95.40;;;;;;5013315;28;20209;-66
2022/09/02 11:45:10;;;;;;;0.40;0.40;;;22.80;96.00;;;;;;5012412;28;20289;-66
2022/09/02 11:48:21;;;;;;;0.40;0.40;;;23.10;95.50;;;;;;5013208;28;20553;-66
2022/09/02 11:51:28;;;;;;;0.40;0.40;;;23.30;94.70;;;;;;5019938;28;20214;-66
2022/09/02 11:54:19;;;;;;;0.40;0.40;;;23.40;94.60;;;;;;5033952;28;20201;-73
2022/09/02 11:57:13;;;;;;;0.40;0.40;;;23.50;93.40;;;;;;5015103;28;20777;-66
2022/09/02 12:00:23;;;;;;;0.40;0.40;;;23.60;92.80;;;;;;5014498;28;20268;-65
2022/09/02 12:03:21;;;;;;;0.40;0.40;;;23.60;92.70;;;;;;5015066;28;20194;-67
2022/09/02 12:06:30;;;;;;;0.40;0.40;;;23.80;92.50;;;;;;5014443;28;20241;-66
2022/09/02 12:09:42;;;;;;;0.40;0.40;;;23.80;91.60;;;;;;5014534;28;20595;-67
2022/09/02 12:13:07;;;;;;;0.40;0.40;;;23.70;92.00;;;;;;5014198;28;20218;-65
2022/09/02 12:16:41;;;;;;;0.40;0.40;;;23.70;92.20;;;;;;5013119;28;20267;-67
2022/09/02 12:19:42;;;;;;;0.50;0.50;;;23.70;91.30;;;;;;4952826;29;20205;-67
2022/09/02 12:22:39;;;;;;;0.40;0.40;;;23.70;90.90;;;;;;5012725;28;20199;-66
2022/09/02 12:25:39;;;;;;;0.40;0.40;;;23.90;90.70;;;;;;5012527;28;20230;-65
2022/09/02 12:28:30;;;;;;;0.60;0.60;;;24.00;88.60;;;;;;5013526;28;20199;-67
2022/09/02 12:31:39;;;;;;;0.40;0.40;;;24.00;87.90;;;;;;5013572;28;20316;-67
2022/09/02 12:34:54;;;;;;;0.40;0.40;;;24.30;88.10;;;;;;5012602;28;20205;-66
2022/09/02 12:37:54;;;;;;;0.40;0.40;;;24.60;88.90;;;;;;5012523;28;20195;-65
2022/09/02 12:40:54;;;;;;;0.40;0.40;;;24.50;86.80;;;;;;5012680;28;20199;-66
2022/09/02 12:43:56;;;;;;;0.40;0.40;;;24.30;87.40;;;;;;5014149;28;20263;-67
2022/09/02 12:47:06;;;;;;;0.50;0.50;;;24.20;86.70;;;;;;5013046;28;20297;-68
2022/09/02 12:50:04;;;;;;;0.40;0.40;;;24.20;86.10;;;;;;5012498;28;20218;-67
2022/09/02 12:53:10;;;;;;;0.40;0.40;;;24.20;86.90;;;;;;5032828;28;20264;-67
2022/09/02 12:56:02;;;;;;;1.52;1.13;;;24.30;85.40;;;;;;5033772;28;20229;-67
2022/09/02 12:58:53;;;;;;;0.40;0.40;;;24.40;84.10;;;;;;5037488;28;20206;-67
2022/09/02 13:01:54;;;;;;;0.40;0.40;;;24.40;84.80;;;;;;5035862;28;20600;-67
2022/09/02 13:04:51;;;;;;;0.50;0.50;;;25.20;84.20;;;;;;5035678;28;20287;-65
2022/09/02 13:08:25;;;;;;;0.40;0.40;;;26.50;81.00;;;;;;5036750;28;20194;-66
2022/09/02 13:11:47;;;;;;;0.40;0.40;;;27.60;77.80;;;;;;5033989;28;20193;-66
2022/09/02 13:15:01;;;;;;;0.40;0.40;;;27.30;74.60;;;;;;5036711;28;20202;-66
2022/09/02 13:18:11;;;;;;;0.40;0.40;;;26.60;75.40;;;;;;5036676;28;20202;-66
2022/09/02 13:21:21;;;;;;;0.40;0.40;;;26.30;76.70;;;;;;5036743;28;20641;-66
2022/09/02 13:24:42;;;;;;;0.40;0.40;;;26.00;77.20;;;;;;5037071;28;20205;-68
2022/09/02 13:27:55;;;;;;;0.40;0.40;;;25.70;77.90;;;;;;5016049;28;20206;-67
2022/09/02 13:31:07;;;;;;;0.40;0.40;;;25.20;77.90;;;;;;5016507;28;20195;-67
2022/09/02 13:34:00;;;;;;;0.40;0.40;;;24.90;79.00;;;;;;5015423;28;20209;-68
2022/09/02 13:36:51;;;;;;;0.40;0.40;;;25.40;79.10;;;;;;5015482;28;20234;-66
2022/09/02 13:39:39;;;;;;;0.40;0.40;;;26.80;75.40;;;;;;5014369;28;20203;-66
2022/09/02 13:42:30;;;;;;;0.40;0.40;;;27.10;73.60;;;;;;5014879;28;20273;-66
2022/09/02 13:45:24;;;;;;;0.40;0.40;;;26.40;73.10;;;;;;5014772;28;20757;-65
2022/09/02 13:48:16;;;;;;;0.40;0.40;;;28.00;73.30;;;;;;5014416;28;20625;-64
2022/09/02 13:51:13;;;;;;;0.40;0.40;;;29.90;68.80;;;;;;5014772;28;20209;-65
2022/09/02 13:54:01;;;;;;;0.47;0.47;;;29.40;66.20;;;;;;5015065;28;20282;-66
2022/09/02 13:57:13;;;;;;;0.40;0.40;;;28.40;67.30;;;;;;5013806;28;20309;-66
2022/09/02 14:00:01;;;;;;;0.40;0.40;;;28.30;67.50;;;;;;5014614;28;20195;-66
2022/09/02 14:02:58;;;;;;;0.40;0.40;;;28.40;65.90;;;;;;5014538;28;20203;-65
2022/09/02 14:05:50;;;;;;;0.40;0.40;;;28.60;66.50;;;;;;5014089;28;20225;-65
2022/09/02 14:08:39;;;;;;;0.40;0.40;;;29.80;64.50;;;;;;5014637;28;20210;-66
2022/09/02 14:11:29;;;;;;;0.40;0.40;;;31.30;62.90;;;;;;5013468;28;20206;-65
2022/09/02 14:14:22;;;;;;;0.40;0.40;;;33.60;58.60;;;;;;5014720;28;20253;-65
2022/09/02 14:17:22;;;;;;;0.60;0.60;;;35.60;54.90;;;;;;5014616;28;20312;-66
2022/09/02 14:20:20;;;;;;;0.40;0.40;;;37.20;50.50;;;;;;5013686;28;20679;-65
2022/09/02 14:23:16;;;;;;;0.40;0.40;;;36.40;48.10;;;;;;5013260;28;20199;-65
2022/09/02 14:26:05;;;;;;;0.43;0.43;;;32.80;50.40;;;;;;5022752;28;20270;-65
2022/09/02 14:28:54;;;;;;;0.40;0.40;;;32.00;51.80;;;;;;5033669;28;20198;-65
2022/09/02 14:31:43;;;;;;;0.40;0.40;;;30.30;53.80;;;;;;5033190;28;20202;-66
2022/09/02 14:34:33;;;;;;;0.40;0.40;;;28.90;54.90;;;;;;5034229;28;20718;-65
2022/09/02 14:37:24;;;;;;;0.40;0.40;;;28.10;56.50;;;;;;5033486;28;20253;-65
2022/09/02 14:40:13;;;;;;;0.40;0.40;;;27.30;57.60;;;;;;5033353;28;20691;-65
2022/09/02 14:43:02;;;;;;;0.40;0.40;;;26.80;59.70;;;;;;5033085;28;20190;-67
2022/09/02 14:45:50;;;;;;;0.40;0.40;;;26.30;60.60;;;;;;5032798;28;20268;-67
2022/09/02 14:48:38;;;;;;;0.40;0.40;;;25.90;61.80;;;;;;5033904;28;20678;-67
2022/09/02 14:51:33;;;;;;;0.40;0.40;;;25.50;62.40;;;;;;5033469;28;20681;-66
2022/09/02 14:54:38;;;;;;;0.40;0.40;;;25.20;63.40;;;;;;5033116;28;20221;-67
2022/09/02 14:57:28;;;;;;;0.40;0.40;;;25.20;63.80;;;;;;5033892;28;20230;-68
2022/09/02 15:00:20;;;;;;;0.40;0.40;;;25.20;64.00;;;;;;5033616;28;20740;-67
2022/09/02 15:03:13;;;;;;;0.40;0.40;;;25.10;64.20;;;;;;5033343;28;20288;-67